Terminal Aerodrome Forecast
Issued by NWS

Home | Current Version | Previous Version | Text Only | Print | Product List | Glossary On
Versions: 1 2 3 4 5 6 7 8 9 10 11 12
000
FTUS45 KABQ 181735
TAFLVS
TAF
KLVS 181735Z 1818/1918 23022G32KT P6SM FEW200
     FM182000 24028G38KT P6SM BKN100
     FM190400 23024G31KT P6SM BKN100
     FM191200 21018KT P6SM SCT040 BKN080
     FM191600 22025G35KT P6SM BKN050=

USA.gov is the U.S. government's official web portal to all federal, state and local government web resources and services.